Time;durP1;ratioP1;P1;durP2;ratioP2;P2;SDS_P1;SDS_P2;PMS_P1;PMS_P2;Temp;Humidity;BMP_temperature;BMP_pressure;BME280_temperature;BME280_humidity;BME280_pressure;Samples;Min_cycle;Max_cycle;Signal;HPM_P1;HPM_P2
2021/05/17 00:00:44;;;;;;;0.30;0.30;;;;;;;;;;4963516;28;20296;-63
2021/05/17 00:03:11;;;;;;;0.30;0.30;;;;;;;;;;4949365;28;20192;-63
2021/05/17 00:05:38;;;;;;;1.27;1.23;;;;;;;;;;4960863;28;20196;-63
2021/05/17 00:08:06;;;;;;;5.97;0.83;;;;;;;;;;4961223;28;20237;-62
2021/05/17 00:10:34;;;;;;;3.40;1.97;;;;;;;;;;4962819;28;20188;-62
2021/05/17 00:13:01;;;;;;;3.17;2.00;;;;;;;;;;4960192;28;20781;-62
2021/05/17 00:15:27;;;;;;;0.00;0.00;;;;;;;;;;4961510;28;20204;-62
2021/05/17 00:17:57;;;;;;;1.10;0.63;;;;;;;;;;4958938;28;20190;-63
2021/05/17 00:20:25;;;;;;;0.40;0.20;;;;;;;;;;4955187;28;20182;-62
2021/05/17 00:22:52;;;;;;;4.20;2.90;;;;;;;;;;4961445;28;20182;-62
2021/05/17 00:25:27;;;;;;;13.90;0.63;;;;;;;;;;4959774;28;20195;-62
2021/05/17 00:27:55;;;;;;;0.77;0.63;;;;;;;;;;4961193;28;20578;-63
2021/05/17 00:30:24;;;;;;;9.13;0.97;;;;;;;;;;4948251;28;20186;-63
2021/05/17 00:32:52;;;;;;;4.47;0.57;;;;;;;;;;4964367;28;21002;-62
2021/05/17 00:35:22;;;;;;;1.13;1.13;;;;;;;;;;4960791;28;20202;-64
2021/05/17 00:37:50;;;;;;;6.40;5.93;;;;;;;;;;4963116;28;20226;-64
2021/05/17 00:40:23;;;;;;;0.00;0.00;;;;;;;;;;4964095;28;20186;-63
2021/05/17 00:42:52;;;;;;;1.40;0.97;;;;;;;;;;4959184;28;20183;-64
2021/05/17 00:45:22;;;;;;;2.83;0.53;;;;;;;;;;4963892;28;20201;-63
2021/05/17 00:47:52;;;;;;;0.00;0.00;;;;;;;;;;4943677;28;20190;-64
2021/05/17 00:50:20;;;;;;;10.30;2.10;;;;;;;;;;4962086;28;20201;-64
2021/05/17 00:52:47;;;;;;;0.10;0.10;;;;;;;;;;4963555;28;20187;-63
2021/05/17 00:55:16;;;;;;;0.77;0.77;;;;;;;;;;4962736;28;20225;-63
2021/05/17 00:57:42;;;;;;;0.00;0.00;;;;;;;;;;4967060;28;20415;-63
2021/05/17 01:00:11;;;;;;;0.10;0.10;;;;;;;;;;4963050;28;20194;-64
2021/05/17 01:02:37;;;;;;;5.60;3.40;;;;;;;;;;4959125;28;20667;-64
2021/05/17 01:05:06;;;;;;;6.53;1.20;;;;;;;;;;4945683;28;20189;-63
2021/05/17 01:07:33;;;;;;;10.03;9.07;;;;;;;;;;4959047;28;20191;-63
2021/05/17 01:10:03;;;;;;;14.10;1.70;;;;;;;;;;4960253;28;20267;-64
2021/05/17 01:12:34;;;;;;;2.43;0.80;;;;;;;;;;4946976;28;20182;-64
2021/05/17 01:15:04;;;;;;;1.10;1.10;;;;;;;;;;4944731;28;20202;-63
2021/05/17 01:17:38;;;;;;;3.37;1.70;;;;;;;;;;4962525;28;20186;-64
2021/05/17 01:20:10;;;;;;;1.60;1.50;;;;;;;;;;4962520;28;20199;-63
2021/05/17 01:25:18;;;;;;;4.60;1.40;;;;;;;;;;4970134;28;20458;-64
2021/05/17 01:27:59;;;;;;;0.00;0.00;;;;;;;;;;4949071;28;20214;-64
2021/05/17 01:30:27;;;;;;;0.20;0.20;;;;;;;;;;4962835;28;20698;-64
2021/05/17 01:32:55;;;;;;;0.00;0.00;;;;;;;;;;4967605;28;20625;-63
2021/05/17 01:35:22;;;;;;;0.00;0.00;;;;;;;;;;4964061;28;20225;-64
2021/05/17 01:37:51;;;;;;;0.50;0.47;;;;;;;;;;4964632;28;20246;-63
2021/05/17 01:40:21;;;;;;;0.90;0.63;;;;;;;;;;4963668;28;20234;-64
2021/05/17 01:42:48;;;;;;;0.00;0.00;;;;;;;;;;4963865;28;20866;-64
2021/05/17 01:45:16;;;;;;;2.67;1.40;;;;;;;;;;4946506;28;20257;-64
2021/05/17 01:47:45;;;;;;;0.40;0.37;;;;;;;;;;4961367;28;20196;-64
2021/05/17 01:50:15;;;;;;;0.13;0.13;;;;;;;;;;4962559;28;20183;-64
2021/05/17 01:52:43;;;;;;;0.00;0.00;;;;;;;;;;4964133;28;20194;-64
2021/05/17 01:55:11;;;;;;;5.33;2.10;;;;;;;;;;4966959;28;20245;-64
2021/05/17 01:57:38;;;;;;;4.10;1.00;;;;;;;;;;4966909;28;20226;-64
2021/05/17 02:00:07;;;;;;;0.90;0.90;;;;;;;;;;4966659;28;20548;-64
2021/05/17 02:02:36;;;;;;;0.00;0.00;;;;;;;;;;4966669;28;20771;-64
2021/05/17 02:05:05;;;;;;;1.63;1.60;;;;;;;;;;4966361;28;20190;-64
2021/05/17 02:07:33;;;;;;;0.00;0.00;;;;;;;;;;4966525;28;20956;-64
2021/05/17 02:10:07;;;;;;;0.00;0.00;;;;;;;;;;4966097;28;20214;-64
2021/05/17 02:12:35;;;;;;;0.10;0.10;;;;;;;;;;4946597;28;20193;-64
2021/05/17 02:15:04;;;;;;;0.00;0.00;;;;;;;;;;4966122;28;20599;-62
2021/05/17 02:17:34;;;;;;;0.73;0.73;;;;;;;;;;4970287;28;20565;-63
2021/05/17 02:20:02;;;;;;;11.03;2.43;;;;;;;;;;4969374;28;20882;-64
2021/05/17 02:22:30;;;;;;;2.47;2.37;;;;;;;;;;4967890;28;20296;-64
2021/05/17 02:24:57;;;;;;;0.27;0.27;;;;;;;;;;4964932;28;20261;-64
2021/05/17 02:27:28;;;;;;;0.00;0.00;;;;;;;;;;4968054;28;20297;-64
2021/05/17 02:29:55;;;;;;;2.27;0.20;;;;;;;;;;4967914;28;20740;-64
2021/05/17 02:32:24;;;;;;;0.93;0.40;;;;;;;;;;4968474;28;20326;-64
2021/05/17 02:34:51;;;;;;;0.03;0.03;;;;;;;;;;4970154;28;20190;-64
2021/05/17 02:37:21;;;;;;;0.00;0.00;;;;;;;;;;4968759;28;20182;-64
2021/05/17 02:39:48;;;;;;;9.80;1.33;;;;;;;;;;4977482;28;20182;-64
2021/05/17 02:42:17;;;;;;;1.17;0.60;;;;;;;;;;4972440;28;20246;-63
2021/05/17 02:44:44;;;;;;;1.17;1.17;;;;;;;;;;4971615;28;20252;-64
2021/05/17 02:47:11;;;;;;;14.57;1.97;;;;;;;;;;4971551;28;20182;-63
2021/05/17 02:49:37;;;;;;;0.83;0.83;;;;;;;;;;4970529;28;20206;-64
2021/05/17 02:52:04;;;;;;;0.10;0.10;;;;;;;;;;4972367;28;20178;-64
2021/05/17 02:54:36;;;;;;;1.43;0.33;;;;;;;;;;4968494;28;20190;-63
2021/05/17 02:57:15;;;;;;;1.13;0.80;;;;;;;;;;4973007;28;20217;-64
2021/05/17 02:59:44;;;;;;;0.37;0.30;;;;;;;;;;4952442;29;20191;-64
2021/05/17 03:02:15;;;;;;;0.10;0.10;;;;;;;;;;4952704;29;20295;-63
2021/05/17 03:04:44;;;;;;;17.57;10.77;;;;;;;;;;4952814;28;20282;-64
2021/05/17 03:07:12;;;;;;;0.40;0.40;;;;;;;;;;4950609;28;20230;-63
2021/05/17 03:09:40;;;;;;;1.40;0.73;;;;;;;;;;4950353;28;20808;-63
2021/05/17 03:12:10;;;;;;;0.00;0.00;;;;;;;;;;4946093;29;20207;-64
2021/05/17 03:14:37;;;;;;;0.07;0.07;;;;;;;;;;4950938;28;20194;-64
2021/05/17 03:17:07;;;;;;;0.70;0.70;;;;;;;;;;4949756;29;20194;-64
2021/05/17 03:19:34;;;;;;;0.63;0.63;;;;;;;;;;4948235;28;20186;-64
2021/05/17 03:22:01;;;;;;;5.80;1.17;;;;;;;;;;4943334;28;20615;-64
2021/05/17 03:24:31;;;;;;;2.07;1.87;;;;;;;;;;4944401;28;21089;-63
2021/05/17 03:26:59;;;;;;;0.63;0.40;;;;;;;;;;4944755;28;20187;-64
2021/05/17 03:29:25;;;;;;;0.50;0.47;;;;;;;;;;4943113;28;20200;-63
2021/05/17 03:31:52;;;;;;;0.50;0.50;;;;;;;;;;4947021;28;20198;-64
2021/05/17 03:34:23;;;;;;;0.00;0.00;;;;;;;;;;4944598;28;20328;-64
2021/05/17 03:36:50;;;;;;;1.43;0.87;;;;;;;;;;4944623;28;20191;-64
2021/05/17 03:39:17;;;;;;;6.30;0.63;;;;;;;;;;4942224;28;20187;-64
2021/05/17 03:41:44;;;;;;;0.73;0.63;;;;;;;;;;4945022;28;20278;-64
2021/05/17 03:44:10;;;;;;;12.20;2.73;;;;;;;;;;4946354;28;20210;-64
2021/05/17 03:46:37;;;;;;;0.20;0.20;;;;;;;;;;4949833;28;20198;-64
2021/05/17 03:49:04;;;;;;;7.20;1.53;;;;;;;;;;4947709;28;20227;-64
2021/05/17 03:51:31;;;;;;;0.20;0.20;;;;;;;;;;4948614;29;20644;-64
2021/05/17 03:53:58;;;;;;;0.00;0.00;;;;;;;;;;4952947;28;20186;-64
2021/05/17 03:56:24;;;;;;;5.07;1.70;;;;;;;;;;4948948;28;20262;-64
2021/05/17 03:58:54;;;;;;;6.40;4.03;;;;;;;;;;4960747;28;20278;-64
2021/05/17 04:01:21;;;;;;;0.63;0.50;;;;;;;;;;4960295;28;20640;-64
2021/05/17 04:03:48;;;;;;;0.00;0.00;;;;;;;;;;4963951;28;20206;-64
2021/05/17 04:06:24;;;;;;;5.60;2.90;;;;;;;;;;4961104;28;20288;-64
2021/05/17 04:14:21;;;;;;;6.70;0.73;;;;;;;;;;4964757;28;20207;-64
2021/05/17 04:16:48;;;;;;;0.00;0.00;;;;;;;;;;4963340;28;20971;-64
2021/05/17 04:19:19;;;;;;;3.93;1.53;;;;;;;;;;4962935;28;20186;-64
2021/05/17 04:21:45;;;;;;;0.77;0.73;;;;;;;;;;4967702;28;20765;-64
2021/05/17 04:24:12;;;;;;;0.50;0.50;;;;;;;;;;4961859;28;20182;-64
2021/05/17 04:26:40;;;;;;;2.77;0.77;;;;;;;;;;4968783;28;20251;-64
2021/05/17 04:29:06;;;;;;;0.93;0.93;;;;;;;;;;4971261;28;20201;-63
2021/05/17 04:31:33;;;;;;;0.57;0.23;;;;;;;;;;4970939;28;20892;-64
2021/05/17 04:33:59;;;;;;;0.30;0.30;;;;;;;;;;4967280;28;20182;-64
2021/05/17 04:36:28;;;;;;;1.23;1.13;;;;;;;;;;4963220;28;20209;-63
2021/05/17 04:38:57;;;;;;;0.00;0.00;;;;;;;;;;4965845;28;20186;-64
2021/05/17 04:41:28;;;;;;;9.43;2.30;;;;;;;;;;4966495;28;20259;-64
2021/05/17 04:43:54;;;;;;;14.23;1.70;;;;;;;;;;4963327;28;20189;-63
2021/05/17 04:46:21;;;;;;;0.00;0.00;;;;;;;;;;4965944;28;20617;-63
2021/05/17 04:48:51;;;;;;;5.83;0.57;;;;;;;;;;4966464;28;20927;-63
2021/05/17 04:51:21;;;;;;;6.10;3.43;;;;;;;;;;4961916;28;20194;-64
2021/05/17 04:53:50;;;;;;;0.20;0.20;;;;;;;;;;4961682;28;20206;-64
2021/05/17 04:56:19;;;;;;;1.50;1.43;;;;;;;;;;4960197;28;20193;-64
2021/05/17 04:58:45;;;;;;;0.40;0.40;;;;;;;;;;4966819;28;20317;-63
2021/05/17 05:01:12;;;;;;;0.00;0.00;;;;;;;;;;4963691;28;20187;-63
2021/05/17 05:03:38;;;;;;;9.87;3.63;;;;;;;;;;4964797;28;20205;-64
2021/05/17 05:06:05;;;;;;;0.50;0.50;;;;;;;;;;4965256;28;20260;-64
2021/05/17 05:08:32;;;;;;;0.00;0.00;;;;;;;;;;4960580;28;20228;-64
2021/05/17 05:11:00;;;;;;;2.20;0.03;;;;;;;;;;4960793;28;20264;-63
2021/05/17 05:13:27;;;;;;;4.80;2.23;;;;;;;;;;4962775;28;20640;-64
2021/05/17 05:15:54;;;;;;;16.97;7.20;;;;;;;;;;4960787;28;20187;-63
2021/05/17 05:18:22;;;;;;;0.00;0.00;;;;;;;;;;4964133;28;20194;-64
2021/05/17 05:20:55;;;;;;;2.40;1.20;;;;;;;;;;4963766;28;20193;-63
2021/05/17 05:23:21;;;;;;;0.00;0.00;;;;;;;;;;4959840;28;20187;-64
2021/05/17 05:28:28;;;;;;;7.93;3.63;;;;;;;;;;4964643;28;21058;-64
2021/05/17 05:33:21;;;;;;;10.00;1.37;;;;;;;;;;4966805;28;20890;-64
2021/05/17 05:35:48;;;;;;;0.77;0.50;;;;;;;;;;4961686;28;21053;-64
2021/05/17 05:38:16;;;;;;;0.10;0.10;;;;;;;;;;4963946;28;20198;-64
2021/05/17 05:40:42;;;;;;;6.83;1.87;;;;;;;;;;4962728;28;20544;-64
2021/05/17 05:43:09;;;;;;;3.30;0.90;;;;;;;;;;4963592;28;20191;-64
2021/05/17 05:45:44;;;;;;;0.00;0.00;;;;;;;;;;4964282;28;20269;-64
2021/05/17 05:48:11;;;;;;;0.00;0.00;;;;;;;;;;4963623;28;20206;-64
2021/05/17 05:50:40;;;;;;;4.20;2.37;;;;;;;;;;4966284;28;20249;-64
2021/05/17 05:53:07;;;;;;;0.00;0.00;;;;;;;;;;4973670;28;20240;-63
2021/05/17 05:55:35;;;;;;;0.07;0.07;;;;;;;;;;4961953;28;20583;-64
2021/05/17 05:58:01;;;;;;;3.70;1.50;;;;;;;;;;4967640;28;20815;-64
2021/05/17 06:00:31;;;;;;;9.60;1.93;;;;;;;;;;4966122;28;20956;-64
2021/05/17 06:03:05;;;;;;;1.73;1.50;;;;;;;;;;4970503;28;20284;-63
2021/05/17 06:05:32;;;;;;;1.67;1.57;;;;;;;;;;4964163;28;20222;-64
2021/05/17 06:08:00;;;;;;;0.00;0.00;;;;;;;;;;4972910;28;20174;-64
2021/05/17 06:10:28;;;;;;;0.63;0.63;;;;;;;;;;4965545;28;20226;-64
2021/05/17 06:12:57;;;;;;;0.00;0.00;;;;;;;;;;4966983;28;20185;-63
2021/05/17 06:15:23;;;;;;;0.00;0.00;;;;;;;;;;4968676;28;20191;-63
2021/05/17 06:17:53;;;;;;;0.00;0.00;;;;;;;;;;4972222;28;20266;-64
2021/05/17 06:20:19;;;;;;;0.00;0.00;;;;;;;;;;4966728;28;20194;-64
2021/05/17 06:22:46;;;;;;;0.73;0.73;;;;;;;;;;4970391;28;20193;-63
2021/05/17 06:25:14;;;;;;;0.83;0.83;;;;;;;;;;4965375;28;20186;-63
2021/05/17 06:27:41;;;;;;;0.00;0.00;;;;;;;;;;4965144;28;20193;-63
2021/05/17 06:30:10;;;;;;;0.00;0.00;;;;;;;;;;4965413;28;20201;-63
2021/05/17 06:32:38;;;;;;;8.57;1.90;;;;;;;;;;4959726;28;20213;-63
2021/05/17 06:35:06;;;;;;;2.23;2.03;;;;;;;;;;4963801;28;20183;-63
2021/05/17 06:37:38;;;;;;;0.00;0.00;;;;;;;;;;4965577;28;20175;-63
2021/05/17 06:40:06;;;;;;;0.53;0.53;;;;;;;;;;4964193;28;20193;-63
2021/05/17 06:42:32;;;;;;;1.03;0.83;;;;;;;;;;4963376;28;20264;-64
2021/05/17 06:45:01;;;;;;;1.90;0.50;;;;;;;;;;4967904;28;20257;-63
2021/05/17 06:47:28;;;;;;;0.20;0.20;;;;;;;;;;4968729;28;20292;-64
2021/05/17 06:49:54;;;;;;;0.00;0.00;;;;;;;;;;4967223;28;20198;-63
2021/05/17 06:52:25;;;;;;;0.13;0.13;;;;;;;;;;4968194;28;20175;-64
2021/05/17 06:54:57;;;;;;;0.00;0.00;;;;;;;;;;4969383;28;20193;-63
2021/05/17 06:57:36;;;;;;;0.30;0.30;;;;;;;;;;4967846;28;20201;-63
2021/05/17 07:00:06;;;;;;;9.13;3.30;;;;;;;;;;4967471;28;20198;-63
2021/05/17 07:02:36;;;;;;;2.10;2.00;;;;;;;;;;4966194;28;20232;-63
2021/05/17 07:05:12;;;;;;;3.60;0.40;;;;;;;;;;4966289;28;20198;-64
2021/05/17 07:12:53;;;;;;;3.80;1.93;;;;;;;;;;4965442;28;20221;-63
2021/05/17 07:15:20;;;;;;;0.87;0.50;;;;;;;;;;4967373;28;20183;-63
2021/05/17 07:17:46;;;;;;;9.33;5.00;;;;;;;;;;4969349;28;20194;-63
2021/05/17 07:20:16;;;;;;;0.27;0.27;;;;;;;;;;4965382;28;20195;-63
2021/05/17 07:25:30;;;;;;;0.33;0.20;;;;;;;;;;4968001;28;20200;-63
2021/05/17 07:27:58;;;;;;;0.00;0.00;;;;;;;;;;4967100;28;20856;-63
2021/05/17 07:30:26;;;;;;;70.87;4.23;;;;;;;;;;4971884;28;20173;-63
2021/05/17 07:32:53;;;;;;;1.30;0.40;;;;;;;;;;4971736;28;20774;-63
2021/05/17 07:35:20;;;;;;;1.00;0.90;;;;;;;;;;4963788;28;20192;-62
2021/05/17 07:37:47;;;;;;;14.13;6.50;;;;;;;;;;4963672;28;20182;-63
2021/05/17 07:40:16;;;;;;;0.00;0.00;;;;;;;;;;4967842;28;20208;-63
2021/05/17 07:42:42;;;;;;;1.13;0.60;;;;;;;;;;4971511;28;20296;-63
2021/05/17 07:45:14;;;;;;;0.27;0.13;;;;;;;;;;4971703;28;20524;-63
2021/05/17 07:47:41;;;;;;;3.30;0.93;;;;;;;;;;4967274;28;20667;-63
2021/05/17 07:50:08;;;;;;;0.00;0.00;;;;;;;;;;4961865;28;20205;-63
2021/05/17 07:52:35;;;;;;;0.97;0.47;;;;;;;;;;4963310;28;20189;-63
2021/05/17 07:55:03;;;;;;;8.53;2.40;;;;;;;;;;4961569;28;20210;-63
2021/05/17 07:57:30;;;;;;;31.53;5.40;;;;;;;;;;4963827;28;20194;-63
2021/05/17 07:59:56;;;;;;;0.00;0.00;;;;;;;;;;4966083;28;20198;-62
2021/05/17 08:02:25;;;;;;;0.00;0.00;;;;;;;;;;4967325;28;20306;-63
2021/05/17 08:04:52;;;;;;;0.00;0.00;;;;;;;;;;4960147;28;20179;-63
2021/05/17 08:07:22;;;;;;;0.00;0.00;;;;;;;;;;4964611;28;20913;-64
2021/05/17 08:09:51;;;;;;;2.33;1.67;;;;;;;;;;4970171;28;20209;-63
2021/05/17 08:12:21;;;;;;;2.37;1.23;;;;;;;;;;4971882;28;20463;-63
2021/05/17 08:14:47;;;;;;;0.87;0.87;;;;;;;;;;4962130;28;20236;-64
2021/05/17 08:17:15;;;;;;;0.00;0.00;;;;;;;;;;4965355;28;20281;-63
2021/05/17 08:19:42;;;;;;;0.00;0.00;;;;;;;;;;4963810;28;20213;-63
2021/05/17 08:22:10;;;;;;;6.90;3.67;;;;;;;;;;4969057;28;20189;-63
2021/05/17 08:24:37;;;;;;;0.27;0.27;;;;;;;;;;4975202;28;20703;-63
2021/05/17 08:27:09;;;;;;;0.63;0.63;;;;;;;;;;4966913;28;20209;-63
2021/05/17 08:29:37;;;;;;;0.37;0.33;;;;;;;;;;4969961;28;20206;-63
2021/05/17 08:32:07;;;;;;;2.53;1.50;;;;;;;;;;4967567;28;20179;-63
2021/05/17 08:34:34;;;;;;;4.80;2.37;;;;;;;;;;4966958;28;20188;-63
2021/05/17 08:37:01;;;;;;;6.23;1.70;;;;;;;;;;4969861;28;20189;-63
2021/05/17 08:39:28;;;;;;;1.07;0.97;;;;;;;;;;4968360;28;20209;-63
2021/05/17 08:41:56;;;;;;;4.13;2.27;;;;;;;;;;4968344;28;20190;-63
2021/05/17 08:44:28;;;;;;;0.30;0.30;;;;;;;;;;4970623;28;21109;-63
2021/05/17 08:46:55;;;;;;;0.10;0.10;;;;;;;;;;4969032;28;20189;-63
2021/05/17 08:49:23;;;;;;;3.10;1.70;;;;;;;;;;4971039;28;20260;-63
2021/05/17 08:51:50;;;;;;;2.63;1.83;;;;;;;;;;4968958;28;20222;-63
2021/05/17 08:54:16;;;;;;;0.40;0.40;;;;;;;;;;4968077;28;20223;-63
2021/05/17 08:56:44;;;;;;;0.87;0.73;;;;;;;;;;4970112;28;20192;-63
2021/05/17 08:59:12;;;;;;;0.83;0.83;;;;;;;;;;4962661;28;20217;-63
2021/05/17 09:01:39;;;;;;;4.50;1.03;;;;;;;;;;4972012;28;20223;-63
2021/05/17 09:04:07;;;;;;;2.27;1.57;;;;;;;;;;4964153;28;20182;-63
2021/05/17 09:06:44;;;;;;;4.37;0.20;;;;;;;;;;4962955;28;20280;-63
2021/05/17 09:09:29;;;;;;;0.10;0.10;;;;;;;;;;4967494;28;20303;-63
2021/05/17 09:12:03;;;;;;;6.50;1.40;;;;;;;;;;4962537;28;20650;-63
2021/05/17 09:14:32;;;;;;;11.33;4.93;;;;;;;;;;4960749;28;20193;-62
2021/05/17 09:17:03;;;;;;;1.67;0.87;;;;;;;;;;4963601;28;20194;-63
2021/05/17 09:19:31;;;;;;;4.33;1.90;;;;;;;;;;4965800;28;20196;-63
2021/05/17 09:22:11;;;;;;;0.30;0.30;;;;;;;;;;4970156;28;20194;-63
2021/05/17 09:24:57;;;;;;;2.33;1.10;;;;;;;;;;4967820;28;20228;-63
2021/05/17 09:27:29;;;;;;;0.00;0.00;;;;;;;;;;4961273;28;20649;-62
2021/05/17 09:29:56;;;;;;;6.40;1.50;;;;;;;;;;4970857;28;20209;-62
2021/05/17 09:32:27;;;;;;;2.03;1.00;;;;;;;;;;4972688;28;20182;-62
2021/05/17 09:35:00;;;;;;;0.23;0.23;;;;;;;;;;4973129;28;20292;-63
2021/05/17 09:37:27;;;;;;;1.30;0.97;;;;;;;;;;4971500;28;20801;-62
2021/05/17 09:40:00;;;;;;;2.03;1.77;;;;;;;;;;4972935;28;20273;-62
2021/05/17 09:42:26;;;;;;;1.40;1.30;;;;;;;;;;4972733;28;20294;-62
2021/05/17 09:44:54;;;;;;;0.43;0.43;;;;;;;;;;4972912;28;20208;-63
2021/05/17 09:47:22;;;;;;;0.10;0.10;;;;;;;;;;4973140;28;20189;-63
2021/05/17 09:49:52;;;;;;;2.50;0.60;;;;;;;;;;4976833;28;20655;-63
2021/05/17 09:52:34;;;;;;;1.13;0.83;;;;;;;;;;4973089;28;20181;-62
2021/05/17 09:55:01;;;;;;;38.93;4.50;;;;;;;;;;4972226;28;20651;-62
2021/05/17 09:57:49;;;;;;;3.40;1.43;;;;;;;;;;4973061;28;20193;-62
2021/05/17 10:00:18;;;;;;;0.00;0.00;;;;;;;;;;4971905;28;20190;-63
2021/05/17 10:02:53;;;;;;;0.00;0.00;;;;;;;;;;4972038;28;20205;-63
2021/05/17 10:05:23;;;;;;;0.00;0.00;;;;;;;;;;4959417;28;20201;-63
2021/05/17 10:07:51;;;;;;;0.00;0.00;;;;;;;;;;4969343;28;20195;-63
2021/05/17 10:10:18;;;;;;;3.50;1.53;;;;;;;;;;4969377;28;20688;-64
2021/05/17 10:12:52;;;;;;;1.93;0.40;;;;;;;;;;4968779;28;20241;-64
2021/05/17 10:15:19;;;;;;;6.10;1.30;;;;;;;;;;4975909;28;20194;-65
2021/05/17 10:17:48;;;;;;;0.00;0.00;;;;;;;;;;4975851;28;20221;-63
2021/05/17 10:20:17;;;;;;;0.10;0.10;;;;;;;;;;4968279;28;20191;-62
2021/05/17 10:22:52;;;;;;;0.00;0.00;;;;;;;;;;4971396;28;20276;-62
2021/05/17 10:25:23;;;;;;;2.93;2.73;;;;;;;;;;4974078;28;20197;-62
2021/05/17 10:28:19;;;;;;;19.53;4.80;;;;;;;;;;4967273;28;20206;-62
2021/05/17 10:30:47;;;;;;;0.00;0.00;;;;;;;;;;4955156;28;20200;-62
2021/05/17 10:33:27;;;;;;;4.93;1.03;;;;;;;;;;4971146;28;20182;-61
2021/05/17 10:35:56;;;;;;;0.00;0.00;;;;;;;;;;4963940;28;20190;-62
2021/05/17 10:38:30;;;;;;;8.13;4.03;;;;;;;;;;4970344;28;20214;-61
2021/05/17 10:41:22;;;;;;;0.47;0.40;;;;;;;;;;4972117;28;20197;-62
2021/05/17 10:46:50;;;;;;;2.93;2.83;;;;;;;;;;4967492;28;20192;-62
2021/05/17 10:49:19;;;;;;;0.10;0.10;;;;;;;;;;4969898;28;20706;-61
2021/05/17 10:51:46;;;;;;;1.03;0.53;;;;;;;;;;4972990;28;20695;-61
2021/05/17 10:54:26;;;;;;;2.80;1.00;;;;;;;;;;4972013;28;20213;-61
2021/05/17 10:56:57;;;;;;;0.00;0.00;;;;;;;;;;4973789;28;20221;-62
2021/05/17 11:02:28;;;;;;;16.90;3.37;;;;;;;;;;4966668;28;20201;-63
2021/05/17 11:04:55;;;;;;;7.53;3.33;;;;;;;;;;4970376;28;20198;-61
2021/05/17 11:07:24;;;;;;;5.20;1.30;;;;;;;;;;4971539;28;20200;-61
2021/05/17 11:10:01;;;;;;;0.30;0.30;;;;;;;;;;4968535;28;20667;-62
2021/05/17 11:12:29;;;;;;;5.10;1.00;;;;;;;;;;4970932;28;20510;-60
2021/05/17 11:15:12;;;;;;;0.10;0.10;;;;;;;;;;4965827;28;20749;-61
2021/05/17 11:17:57;;;;;;;1.80;1.27;;;;;;;;;;4970393;28;20182;-61
2021/05/17 11:20:50;;;;;;;8.33;3.80;;;;;;;;;;4970857;28;20932;-62
2021/05/17 11:23:20;;;;;;;9.53;2.73;;;;;;;;;;4960956;28;20557;-60
2021/05/17 11:25:50;;;;;;;6.30;5.83;;;;;;;;;;4971404;28;20197;-60
2021/05/17 11:28:39;;;;;;;8.53;2.80;;;;;;;;;;4970654;28;20189;-61
2021/05/17 11:31:30;;;;;;;0.50;0.50;;;;;;;;;;4971656;28;20543;-61
2021/05/17 11:34:05;;;;;;;4.60;2.30;;;;;;;;;;4958299;28;20192;-61
2021/05/17 11:36:33;;;;;;;4.97;1.17;;;;;;;;;;4971633;28;20197;-61
2021/05/17 11:39:19;;;;;;;3.50;0.87;;;;;;;;;;4970979;28;20201;-61
2021/05/17 11:41:56;;;;;;;10.40;2.03;;;;;;;;;;4970765;28;20903;-61
2021/05/17 11:47:16;;;;;;;0.97;0.40;;;;;;;;;;4969464;28;20193;-62
2021/05/17 11:49:44;;;;;;;0.00;0.00;;;;;;;;;;4968253;28;20202;-61
2021/05/17 11:52:14;;;;;;;8.20;2.23;;;;;;;;;;4969498;28;20186;-62
2021/05/17 11:54:49;;;;;;;2.23;2.10;;;;;;;;;;4969460;28;20197;-62
2021/05/17 11:57:16;;;;;;;4.73;0.83;;;;;;;;;;4969585;28;20198;-61
2021/05/17 13:41:54;;;;;;;6.73;2.97;;;;;;;;;;3927748;23;20237;-67
2021/05/17 13:44:21;;;;;;;3.20;2.37;;;;;;;;;;4944299;28;20201;-67
2021/05/17 13:46:47;;;;;;;8.40;1.47;;;;;;;;;;4943551;29;20984;-66
2021/05/17 13:49:14;;;;;;;0.77;0.77;;;;;;;;;;4943455;29;20214;-67
2021/05/17 13:51:40;;;;;;;1.13;0.87;;;;;;;;;;4940341;29;20261;-67
2021/05/17 13:54:07;;;;;;;5.27;2.33;;;;;;;;;;4944167;29;20721;-67
2021/05/17 13:56:33;;;;;;;2.70;1.53;;;;;;;;;;4944333;29;20243;-66
2021/05/17 13:59:00;;;;;;;9.57;3.73;;;;;;;;;;4943531;29;20207;-67
2021/05/17 14:01:26;;;;;;;0.57;0.20;;;;;;;;;;4942834;29;20194;-66
2021/05/17 14:03:53;;;;;;;2.27;0.77;;;;;;;;;;4943396;29;20202;-66
2021/05/17 14:06:19;;;;;;;1.30;0.27;;;;;;;;;;4943165;29;20194;-67
2021/05/17 14:08:46;;;;;;;0.20;0.20;;;;;;;;;;4943431;29;20714;-67
2021/05/17 14:11:13;;;;;;;0.97;0.90;;;;;;;;;;4943854;28;20265;-67
2021/05/17 14:13:41;;;;;;;12.27;3.17;;;;;;;;;;4948130;29;20874;-66
2021/05/17 14:16:07;;;;;;;7.00;2.77;;;;;;;;;;4948231;29;20362;-66
2021/05/17 14:18:34;;;;;;;6.43;2.60;;;;;;;;;;4948476;29;20302;-67
2021/05/17 14:21:00;;;;;;;13.20;3.87;;;;;;;;;;4947899;29;20188;-66
2021/05/17 14:23:27;;;;;;;40.63;4.90;;;;;;;;;;4947959;29;20202;-66
2021/05/17 14:25:53;;;;;;;0.00;0.00;;;;;;;;;;4948013;29;20199;-67
2021/05/17 14:28:20;;;;;;;2.53;0.60;;;;;;;;;;4947656;29;20674;-67
2021/05/17 14:30:47;;;;;;;1.20;0.83;;;;;;;;;;4947696;29;20239;-67
2021/05/17 14:33:13;;;;;;;2.10;1.93;;;;;;;;;;4947987;29;20206;-66
2021/05/17 14:35:40;;;;;;;9.50;3.80;;;;;;;;;;4945422;29;20187;-66
2021/05/17 14:38:07;;;;;;;1.33;0.77;;;;;;;;;;4945153;28;20521;-67
2021/05/17 14:40:33;;;;;;;4.67;1.27;;;;;;;;;;4939689;29;20750;-66
2021/05/17 14:43:01;;;;;;;0.30;0.30;;;;;;;;;;4940435;28;20200;-67
2021/05/17 14:45:29;;;;;;;3.83;1.47;;;;;;;;;;4940228;29;20195;-66
2021/05/17 14:47:55;;;;;;;2.43;1.47;;;;;;;;;;4943325;28;20184;-67
2021/05/17 14:50:22;;;;;;;1.53;0.90;;;;;;;;;;4943846;29;20207;-67
2021/05/17 14:52:49;;;;;;;1.67;1.17;;;;;;;;;;4945529;29;20723;-67
2021/05/17 14:55:15;;;;;;;3.30;0.77;;;;;;;;;;4945638;29;20187;-68
2021/05/17 14:57:43;;;;;;;6.20;2.37;;;;;;;;;;4946013;28;20709;-67
2021/05/17 15:00:19;;;;;;;13.53;7.67;;;;;;;;;;4945409;28;20196;-68
2021/05/17 15:02:46;;;;;;;12.13;1.10;;;;;;;;;;4944490;29;20282;-67
2021/05/17 15:05:15;;;;;;;1.90;1.03;;;;;;;;;;4942735;29;20185;-67
2021/05/17 15:07:41;;;;;;;1.70;1.50;;;;;;;;;;4947116;28;20649;-67
2021/05/17 15:10:09;;;;;;;9.43;1.23;;;;;;;;;;4947708;28;20990;-67
2021/05/17 15:12:36;;;;;;;0.40;0.40;;;;;;;;;;4945744;28;20237;-67
2021/05/17 15:15:04;;;;;;;15.63;2.77;;;;;;;;;;4945109;28;20290;-67
2021/05/17 15:17:30;;;;;;;5.00;1.47;;;;;;;;;;4946501;28;20200;-67
2021/05/17 15:19:57;;;;;;;0.13;0.13;;;;;;;;;;4946612;29;20194;-67
2021/05/17 15:22:23;;;;;;;13.17;1.37;;;;;;;;;;4945719;28;20195;-67
2021/05/17 15:24:50;;;;;;;18.27;2.57;;;;;;;;;;4943473;29;20628;-67
2021/05/17 15:27:16;;;;;;;2.20;1.97;;;;;;;;;;4945321;29;21300;-67
2021/05/17 15:29:43;;;;;;;5.80;1.50;;;;;;;;;;4944753;28;20657;-66
2021/05/17 15:32:09;;;;;;;0.10;0.10;;;;;;;;;;4944673;29;20646;-67
2021/05/17 15:34:36;;;;;;;16.57;11.83;;;;;;;;;;4946112;28;20254;-67
2021/05/17 15:37:02;;;;;;;10.27;1.50;;;;;;;;;;4944202;29;20176;-67
2021/05/17 15:39:29;;;;;;;8.00;2.33;;;;;;;;;;4945771;29;20193;-67
2021/05/17 15:41:57;;;;;;;4.47;2.47;;;;;;;;;;4944136;28;20242;-67
2021/05/17 15:44:23;;;;;;;30.53;2.37;;;;;;;;;;4945094;29;20202;-67
2021/05/17 15:46:53;;;;;;;11.70;1.37;;;;;;;;;;4942270;29;20197;-67
2021/05/17 15:49:20;;;;;;;8.00;1.47;;;;;;;;;;4943729;28;20210;-67
2021/05/17 15:51:46;;;;;;;3.40;1.13;;;;;;;;;;4942194;28;20178;-68
2021/05/17 15:54:13;;;;;;;3.63;0.77;;;;;;;;;;4939756;28;20182;-67
2021/05/17 15:56:39;;;;;;;30.70;1.40;;;;;;;;;;4945261;28;20185;-67
2021/05/17 15:59:06;;;;;;;8.90;0.90;;;;;;;;;;4941905;29;20273;-67
2021/05/17 16:01:36;;;;;;;8.43;2.80;;;;;;;;;;4945763;28;20187;-67
2021/05/17 16:04:02;;;;;;;0.80;0.80;;;;;;;;;;4944874;29;20551;-67
2021/05/17 16:06:29;;;;;;;3.87;1.00;;;;;;;;;;4945293;28;20203;-67
2021/05/17 16:08:55;;;;;;;9.23;1.70;;;;;;;;;;4942770;28;20206;-67
2021/05/17 16:11:28;;;;;;;20.47;1.70;;;;;;;;;;4945702;28;20184;-68
2021/05/17 16:17:16;;;;;;;4.10;1.97;;;;;;;;;;4944956;29;20879;-67
2021/05/17 16:21:56;;;;;;;9.60;3.97;;;;;;;;;;4945407;29;20210;-67
2021/05/17 16:24:23;;;;;;;9.10;1.50;;;;;;;;;;4944935;29;20197;-68
2021/05/17 16:26:51;;;;;;;11.33;2.07;;;;;;;;;;4944612;29;20194;-68
2021/05/17 16:29:19;;;;;;;2.10;1.40;;;;;;;;;;4944874;29;20218;-67
2021/05/17 16:31:45;;;;;;;7.97;1.47;;;;;;;;;;4944992;29;20592;-67
2021/05/17 16:34:12;;;;;;;4.60;1.83;;;;;;;;;;4942582;28;20190;-67
2021/05/17 16:36:40;;;;;;;0.20;0.20;;;;;;;;;;4935530;29;20277;-67
2021/05/17 16:39:07;;;;;;;7.23;2.27;;;;;;;;;;4944877;28;20195;-67
2021/05/17 16:41:34;;;;;;;14.80;2.77;;;;;;;;;;4943948;29;20612;-67
2021/05/17 16:44:01;;;;;;;0.53;0.43;;;;;;;;;;4944700;29;20221;-67
2021/05/17 16:46:28;;;;;;;20.73;3.10;;;;;;;;;;4944741;29;20827;-67
2021/05/17 16:49:03;;;;;;;28.10;3.23;;;;;;;;;;4944706;29;20214;-67
2021/05/17 16:51:43;;;;;;;0.10;0.10;;;;;;;;;;4944582;29;20244;-66
2021/05/17 16:54:11;;;;;;;1.90;0.63;;;;;;;;;;4944497;29;20188;-67
2021/05/17 16:56:38;;;;;;;12.13;2.43;;;;;;;;;;4944606;29;20246;-68
2021/05/17 16:59:05;;;;;;;2.17;1.63;;;;;;;;;;4944617;29;20277;-67
2021/05/17 17:01:36;;;;;;;2.90;1.60;;;;;;;;;;4944450;29;20194;-67
2021/05/17 17:04:03;;;;;;;5.17;1.67;;;;;;;;;;4944630;29;20194;-68
2021/05/17 17:06:31;;;;;;;4.63;0.93;;;;;;;;;;4944730;29;20204;-67
2021/05/17 17:08:58;;;;;;;7.47;0.87;;;;;;;;;;4944552;29;20974;-67